Kezdőlap
METAR-TAF:

METAR-TAF

Repülőterek :

McAlester, Oklahoma, Amerikai Egyesült Államok

földrajzi szélesség: 34-52-56N, földrajzi hosszúság: 095-46-59W, magasság: 234 m

Jelenlegi meteorológiai megfigyelések

A jelentés 21 órával és 25 perccel ezelõtt készült, 21:53 UTC
Dél-délkeleti szél 4 kt
Hőmérséklet 33°C
Páratartalom 49%
Légköri nyomás 1015 hPa
Látótávolság: 16.1 km
Derült ég

METAR: KMLC 142153Z AUTO 16004KT 10SM CLR 33/21 A2996 RMK AO2 SLP133 T03280211

Idő: 14:18 (19:18 UTC)

Előrejelzés

A jelentés 1 órával és 58 perccel ezelõtt készült, 17:20 UTC
Az előrejelzés 15-én 18 óra UTC és 16-én 18 óra UTC között érvényes
Dél-délkeleti szél 6 kt
Látótávolság: 10 km
Kevés felhő 5000 lábon

TAF: KMLC 151720Z 1518/1618 16006KT P6SM FEW050

Meteorológiai megfigyelések és előrejelzések több, mint 4000 repülőtéren (METAR és TAF jelentéseket).

A térképen piros és sárga pontok jelzik az elérhető meteorológiai állomásokat.

Mozgassa az egeret a pont fölött, hogy megjelenjen az állomás neve.

Azután kattintson az időjárási megfigyelések és előrejelzések megtekintéséhez.

A térkép megváltoztatása: kattintson a fekete keresztel jelölt zöld gombra ráközelítéshez, a vonallal jelölt zöld gombra távolításhoz, vagy a zöld nyilakra a szomszédos térképek eléréséhez.


METAR-TAF: